Time;durP1;ratioP1;P1;durP2;ratioP2;P2;SDS_P1;SDS_P2;PMS_P1;PMS_P2;Temp;Humidity;BMP_temperature;BMP_pressure;BME280_temperature;BME280_humidity;BME280_pressure;Samples;Min_cycle;Max_cycle;Signal;HPM_P1;HPM_P2
2023/12/10 00:01:06;;;;;;;18.13;13.47;;;;;;;8.28;65.28;94541.13;5039974;28;20208;-45
2023/12/10 00:03:33;;;;;;;20.37;14.50;;;;;;;8.29;65.32;94542.75;5035180;28;20189;-45
2023/12/10 00:06:00;;;;;;;18.07;14.20;;;;;;;8.27;65.40;94539.53;5047512;28;20224;-44
2023/12/10 00:08:28;;;;;;;22.50;14.03;;;;;;;8.26;65.31;94552.41;5049392;28;20179;-48
2023/12/10 00:10:55;;;;;;;18.80;13.73;;;;;;;8.25;65.27;94543.94;5048817;28;20187;-46
2023/12/10 00:13:21;;;;;;;18.53;14.13;;;;;;;8.23;65.17;94555.19;5048779;28;20195;-46
2023/12/10 00:15:50;;;;;;;19.43;13.27;;;;;;;8.22;65.27;94544.19;5033572;28;20191;-45
2023/12/10 00:18:17;;;;;;;19.10;14.27;;;;;;;8.20;65.32;94546.06;5029012;28;20234;-45
2023/12/10 00:20:45;;;;;;;18.10;14.57;;;;;;;8.20;65.47;94542.69;5030485;28;20191;-46
2023/12/10 00:23:12;;;;;;;21.50;15.33;;;;;;;8.19;65.21;94554.63;5028931;28;20657;-46
2023/12/10 00:25:40;;;;;;;19.17;13.43;;;;;;;8.19;65.44;94548.72;5029222;28;20249;-45
2023/12/10 00:28:07;;;;;;;19.70;14.23;;;;;;;8.18;65.42;94547.13;5028621;28;20195;-45
2023/12/10 00:30:34;;;;;;;18.50;13.53;;;;;;;8.19;65.41;94552.09;5029208;28;20822;-45
2023/12/10 00:33:01;;;;;;;18.67;14.60;;;;;;;8.19;65.38;94549.53;5029091;28;20180;-45
2023/12/10 00:35:28;;;;;;;18.50;13.53;;;;;;;8.14;65.30;94541.47;5044061;28;20207;-48
2023/12/10 00:37:55;;;;;;;17.50;13.23;;;;;;;8.17;65.25;94536.13;5054848;28;20675;-47
2023/12/10 00:40:22;;;;;;;22.67;15.13;;;;;;;7.62;65.36;94446.47;5054847;28;20209;-47
2023/12/10 00:42:51;;;;;;;18.03;13.80;;;;;;;8.23;65.28;94537.34;5054822;28;20218;-44
2023/12/10 00:45:17;;;;;;;20.23;14.17;;;;;;;8.21;65.57;94529.84;5050153;28;20187;-44
2023/12/10 00:47:44;;;;;;;18.70;14.47;;;;;;;8.22;65.25;94538.31;5054971;28;20187;-45
2023/12/10 00:50:11;;;;;;;16.90;13.77;;;;;;;8.21;65.22;94539.25;5054511;28;20193;-46
2023/12/10 00:52:38;;;;;;;19.70;14.27;;;;;;;8.21;65.33;94541.78;5053392;28;20191;-45
2023/12/10 00:55:05;;;;;;;18.27;13.30;;;;;;;8.21;65.31;94546.88;5033545;28;20239;-45
2023/12/10 00:57:32;;;;;;;19.63;14.90;;;;;;;8.15;65.40;94540.53;5032501;28;20231;-45
2023/12/10 01:00:00;;;;;;;20.93;15.47;;;;;;;8.16;65.16;94537.06;5032210;28;20199;-45
2023/12/10 01:02:27;;;;;;;18.67;14.53;;;;;;;8.18;65.34;94539.50;5032623;28;20211;-46
2023/12/10 01:04:54;;;;;;;20.67;14.97;;;;;;;8.16;65.24;94539.63;5048824;28;20195;-47
2023/12/10 01:07:21;;;;;;;23.33;15.63;;;;;;;8.15;65.24;94532.09;5052518;28;20202;-45
2023/12/10 01:09:48;;;;;;;18.77;14.37;;;;;;;7.90;65.26;94484.91;5052097;28;20668;-45
2023/12/10 01:12:16;;;;;;;20.60;14.30;;;;;;;8.10;65.28;94517.19;5052095;28;20197;-45
2023/12/10 01:14:44;;;;;;;20.13;14.73;;;;;;;8.02;65.36;94510.19;5037011;28;20194;-44
2023/12/10 01:17:13;;;;;;;19.10;13.90;;;;;;;8.08;65.37;94521.63;5032306;28;20215;-44
2023/12/10 01:19:40;;;;;;;19.83;15.47;;;;;;;8.13;65.30;94521.25;5032016;28;20745;-45
2023/12/10 01:22:07;;;;;;;20.17;14.67;;;;;;;6.93;65.50;94321.59;5050483;28;20548;-45
2023/12/10 01:24:34;;;;;;;20.37;14.43;;;;;;;8.15;65.60;94506.63;5051666;28;20195;-44
2023/12/10 01:27:01;;;;;;;23.97;16.00;;;;;;;8.12;65.49;94507.69;5051781;28;20203;-53
2023/12/10 01:29:28;;;;;;;18.57;14.37;;;;;;;8.15;65.18;94504.88;5052096;28;20640;-44
2023/12/10 01:31:54;;;;;;;20.47;14.47;;;;;;;8.11;65.39;94495.88;5051621;28;20202;-46
2023/12/10 01:34:23;;;;;;;19.83;14.17;;;;;;;8.13;65.26;94494.03;5038291;28;20199;-45
2023/12/10 01:36:50;;;;;;;18.50;14.50;;;;;;;8.07;65.27;94479.22;5033921;28;20212;-46
2023/12/10 01:39:17;;;;;;;20.73;14.87;;;;;;;8.10;65.40;94491.72;5031844;28;20196;-45
2023/12/10 01:41:44;;;;;;;20.37;13.70;;;;;;;7.78;65.20;94444.28;5031615;28;20200;-46
2023/12/10 01:44:12;;;;;;;21.47;14.90;;;;;;;8.05;65.39;94492.09;5031710;28;20207;-43
2023/12/10 01:46:39;;;;;;;21.90;15.50;;;;;;;7.86;65.39;94464.03;5031811;28;20235;-44
2023/12/10 01:49:08;;;;;;;20.47;14.27;;;;;;;7.85;65.40;94469.22;5044814;28;20198;-45
2023/12/10 01:51:38;;;;;;;20.00;14.67;;;;;;;8.01;65.67;94497.59;5049743;28;20249;-44
2023/12/10 01:54:05;;;;;;;21.97;15.50;;;;;;;8.00;65.56;94501.06;5050955;28;20191;-45
2023/12/10 01:56:32;;;;;;;20.13;14.73;;;;;;;7.97;65.46;94496.22;5051338;28;20202;-45
2023/12/10 01:58:59;;;;;;;19.33;15.60;;;;;;;8.00;65.55;94503.63;5050655;28;20191;-45
2023/12/10 02:01:27;;;;;;;19.77;14.27;;;;;;;7.98;65.48;94503.72;5051162;28;20231;-44
2023/12/10 02:03:55;;;;;;;19.67;13.87;;;;;;;8.00;65.38;94506.16;5037635;28;20196;-43
2023/12/10 02:06:25;;;;;;;20.87;14.73;;;;;;;8.00;65.33;94496.78;5032440;28;20199;-45
2023/12/10 02:08:53;;;;;;;19.80;13.90;;;;;;;8.01;65.50;94490.75;5031331;28;20227;-46
2023/12/10 02:11:20;;;;;;;18.20;13.83;;;;;;;7.91;65.43;94484.81;5031489;28;20683;-45
2023/12/10 02:13:47;;;;;;;20.77;14.40;;;;;;;8.01;65.49;94500.13;5031307;28;20198;-44
2023/12/10 02:16:14;;;;;;;20.10;13.87;;;;;;;8.01;65.57;94492.50;5031482;28;20195;-45
2023/12/10 02:18:41;;;;;;;20.00;13.97;;;;;;;8.00;65.52;94486.59;5030788;28;20227;-44
2023/12/10 02:21:08;;;;;;;16.97;13.10;;;;;;;8.01;65.29;94497.59;5032434;28;20188;-44
2023/12/10 02:23:46;;;;;;;20.43;13.50;;;;;;;8.01;65.45;94495.03;5030642;28;20192;-45
2023/12/10 02:26:15;;;;;;;21.13;14.77;;;;;;;8.01;65.38;94500.13;5031044;28;20287;-45
2023/12/10 02:28:42;;;;;;;19.67;13.77;;;;;;;7.99;65.39;94486.72;5030617;28;20207;-45
2023/12/10 02:31:09;;;;;;;24.07;15.20;;;;;;;7.99;65.38;94491.81;5031135;28;20208;-44
2023/12/10 02:33:36;;;;;;;19.30;14.17;;;;;;;7.99;65.45;94474.00;5045883;28;20675;-45
2023/12/10 02:36:03;;;;;;;18.77;13.63;;;;;;;7.98;65.52;94474.91;5049048;28;20231;-44
2023/12/10 02:38:30;;;;;;;19.07;14.47;;;;;;;7.97;65.44;94470.75;5050416;28;20598;-44
2023/12/10 02:40:57;;;;;;;21.03;13.57;;;;;;;7.95;65.46;94473.44;5050901;28;20186;-44
2023/12/10 02:43:26;;;;;;;18.97;14.70;;;;;;;7.95;65.46;94470.09;5050525;28;20218;-45
2023/12/10 02:45:52;;;;;;;17.50;13.77;;;;;;;7.95;65.62;94476.00;5050930;28;20245;-44
2023/12/10 02:48:21;;;;;;;18.10;13.27;;;;;;;7.93;65.57;94464.31;5050466;28;20187;-45
2023/12/10 02:50:49;;;;;;;19.90;14.30;;;;;;;7.91;65.48;94472.09;5048157;28;20191;-44
2023/12/10 02:53:16;;;;;;;16.73;12.47;;;;;;;7.90;65.69;94465.38;5049890;28;20252;-44
2023/12/10 02:55:43;;;;;;;19.90;14.20;;;;;;;7.88;65.74;94474.88;5050499;28;20187;-44
2023/12/10 02:58:09;;;;;;;20.03;14.60;;;;;;;7.87;65.74;94478.34;5049731;28;20253;-45
2023/12/10 03:00:38;;;;;;;19.10;13.57;;;;;;;7.86;65.71;94479.31;5050006;28;20199;-46
2023/12/10 03:03:04;;;;;;;21.73;14.57;;;;;;;7.86;65.69;94474.22;5037332;28;20195;-45
2023/12/10 03:05:31;;;;;;;20.63;13.83;;;;;;;7.86;65.66;94466.56;5043451;28;20199;-45
2023/12/10 03:07:58;;;;;;;23.07;14.97;;;;;;;7.79;65.66;94450.19;5049344;28;20191;-45
2023/12/10 03:10:25;;;;;;;21.47;15.33;;;;;;;7.82;65.87;94455.03;5049484;28;20261;-45
2023/12/10 03:12:52;;;;;;;19.60;14.23;;;;;;;7.84;65.74;94454.88;5050105;28;20282;-45
2023/12/10 03:15:19;;;;;;;20.17;14.17;;;;;;;7.82;65.83;94457.56;5049624;28;20187;-44
2023/12/10 03:17:47;;;;;;;18.40;13.73;;;;;;;7.80;65.74;94460.22;5049607;28;20222;-46
2023/12/10 03:20:14;;;;;;;21.00;14.97;;;;;;;7.79;65.64;94456.06;5035518;28;20180;-44
2023/12/10 03:22:41;;;;;;;19.40;14.40;;;;;;;7.74;65.87;94452.31;5031238;28;20183;-46
2023/12/10 03:25:08;;;;;;;21.30;14.70;;;;;;;7.74;65.79;94458.19;5029678;28;20192;-44
2023/12/10 03:27:35;;;;;;;20.63;13.77;;;;;;;7.73;65.92;94461.69;5030107;28;20203;-46
2023/12/10 03:30:03;;;;;;;19.57;13.43;;;;;;;7.71;65.97;94461.00;5029431;28;20195;-45
2023/12/10 03:32:30;;;;;;;20.90;14.70;;;;;;;7.68;65.97;94463.78;5029626;28;20196;-44
2023/12/10 03:34:58;;;;;;;19.47;14.20;;;;;;;7.69;65.99;94469.69;5029651;28;20211;-46
2023/12/10 03:37:25;;;;;;;19.67;14.43;;;;;;;7.67;65.95;94474.88;5039682;28;20218;-45
2023/12/10 03:39:52;;;;;;;20.17;14.23;;;;;;;7.66;65.89;94463.09;5049616;28;20191;-44
2023/12/10 03:42:18;;;;;;;24.93;13.93;;;;;;;7.66;65.99;94464.84;5049264;28;20183;-46
2023/12/10 03:44:45;;;;;;;21.03;14.53;;;;;;;7.63;66.04;94458.25;5048983;28;20190;-44
2023/12/10 03:47:12;;;;;;;19.87;14.10;;;;;;;7.61;66.02;94455.03;5042337;28;20196;-46
2023/12/10 03:49:39;;;;;;;19.90;14.40;;;;;;;7.48;66.16;94455.25;5029269;28;20669;-44
2023/12/10 03:52:07;;;;;;;19.97;14.70;;;;;;;7.58;66.10;94464.66;5030305;28;20195;-44
2023/12/10 03:54:34;;;;;;;18.70;13.43;;;;;;;7.57;66.04;94471.50;5029718;28;20184;-45
2023/12/10 03:57:01;;;;;;;20.13;14.37;;;;;;;7.57;66.18;94466.41;5029185;28;20188;-46
2023/12/10 03:59:28;;;;;;;18.43;13.13;;;;;;;7.58;66.10;94467.22;5029157;28;20223;-44
2023/12/10 04:01:56;;;;;;;18.77;14.17;;;;;;;7.57;66.18;94465.59;5029125;28;20665;-44
2023/12/10 04:04:22;;;;;;;21.10;13.33;;;;;;;7.59;66.15;94473.91;5035425;28;20194;-45
2023/12/10 04:06:49;;;;;;;19.73;13.70;;;;;;;7.58;66.07;94470.56;5047329;28;20507;-44
2023/12/10 04:09:17;;;;;;;18.20;13.10;;;;;;;7.51;66.17;94455.00;5049484;28;20198;-44
2023/12/10 04:11:44;;;;;;;17.67;13.23;;;;;;;7.60;66.05;94468.72;5049349;28;20198;-45
2023/12/10 04:14:11;;;;;;;18.20;12.77;;;;;;;7.61;66.02;94469.50;5048790;28;20193;-44
2023/12/10 04:16:39;;;;;;;20.10;13.80;;;;;;;7.62;65.95;94466.84;5048947;28;20198;-45
2023/12/10 04:19:06;;;;;;;19.80;13.80;;;;;;;7.64;66.07;94469.25;5042042;28;20229;-45
2023/12/10 04:21:33;;;;;;;22.73;14.43;;;;;;;7.45;66.08;94441.97;5039949;28;20179;-44
2023/12/10 04:24:00;;;;;;;16.50;12.37;;;;;;;7.67;66.10;94479.19;5049037;28;20527;-44
2023/12/10 04:26:28;;;;;;;19.00;13.63;;;;;;;7.68;66.06;94479.03;5048804;28;20194;-45
2023/12/10 04:28:55;;;;;;;17.67;12.60;;;;;;;7.70;65.81;94471.31;5048719;28;20690;-44
2023/12/10 04:31:22;;;;;;;19.83;12.80;;;;;;;7.72;66.06;94469.44;5049049;28;20182;-43
2023/12/10 04:33:48;;;;;;;16.90;11.90;;;;;;;7.20;65.79;94393.06;5042531;28;20184;-46
2023/12/10 04:36:15;;;;;;;18.03;12.90;;;;;;;7.74;65.82;94467.56;5036870;28;20179;-44
2023/12/10 04:38:43;;;;;;;17.37;12.67;;;;;;;7.75;65.81;94469.19;5048863;28;20253;-48
2023/12/10 04:41:10;;;;;;;18.60;13.40;;;;;;;7.75;66.02;94469.97;5049174;28;20221;-45
2023/12/10 04:43:38;;;;;;;20.97;13.77;;;;;;;7.77;66.02;94469.84;5049160;28;20198;-44
2023/12/10 04:46:05;;;;;;;17.43;13.27;;;;;;;7.77;65.94;94467.31;5049419;28;20183;-44
2023/12/10 04:48:32;;;;;;;17.20;12.70;;;;;;;7.79;65.84;94471.34;5052441;28;20205;-51
2023/12/10 04:51:00;;;;;;;18.33;13.17;;;;;;;7.79;66.22;94468.81;5064672;28;20573;-44
2023/12/10 04:53:27;;;;;;;17.17;12.63;;;;;;;7.80;66.03;94470.41;5053874;28;20572;-44
2023/12/10 04:55:53;;;;;;;18.50;13.23;;;;;;;7.81;66.04;94468.66;5048937;28;20195;-46
2023/12/10 04:58:20;;;;;;;19.17;13.00;;;;;;;7.80;65.86;94467.88;5048884;28;20215;-46
2023/12/10 05:00:48;;;;;;;17.80;12.63;;;;;;;7.81;65.64;94471.22;5048335;28;20308;-46
2023/12/10 05:03:15;;;;;;;19.20;13.60;;;;;;;7.81;65.98;94471.22;5048483;28;20179;-45
2023/12/10 05:05:42;;;;;;;19.30;13.53;;;;;;;7.81;65.91;94471.22;5048395;28;20203;-44
2023/12/10 05:08:09;;;;;;;17.37;12.80;;;;;;;7.82;65.83;94477.13;5047049;28;20198;-45
2023/12/10 05:10:36;;;;;;;21.20;14.13;;;;;;;7.83;66.06;94477.00;5048123;28;20603;-44
2023/12/10 05:13:03;;;;;;;19.63;14.17;;;;;;;7.83;66.03;94474.44;5048520;28;20191;-44
2023/12/10 05:15:30;;;;;;;19.07;12.60;;;;;;;7.82;65.89;94470.31;5048369;28;20601;-44
2023/12/10 05:18:02;;;;;;;19.93;13.47;;;;;;;7.81;65.74;94463.56;5048278;28;20688;-46
2023/12/10 05:20:29;;;;;;;18.37;13.13;;;;;;;7.77;65.92;94469.84;5048269;28;20237;-45
2023/12/10 05:22:56;;;;;;;18.80;13.93;;;;;;;7.78;65.85;94474.03;5038357;28;20652;-46
2023/12/10 05:25:23;;;;;;;19.03;12.87;;;;;;;7.63;66.01;94454.91;5028528;28;20207;-45
2023/12/10 05:27:49;;;;;;;19.63;13.37;;;;;;;7.75;66.07;94476.81;5032914;28;20210;-46
2023/12/10 05:30:16;;;;;;;20.67;13.93;;;;;;;7.72;65.99;94475.31;5046361;28;20199;-45
2023/12/10 05:32:43;;;;;;;18.43;13.20;;;;;;;7.71;66.01;94472.91;5049092;28;20191;-44
2023/12/10 05:35:11;;;;;;;20.27;13.67;;;;;;;7.68;66.09;94479.03;5052124;28;20210;-46
2023/12/10 05:37:38;;;;;;;20.17;13.13;;;;;;;7.51;66.00;94449.06;5036640;28;20192;-46
2023/12/10 05:40:06;;;;;;;21.33;13.53;;;;;;;7.63;66.09;94473.53;5032243;28;20557;-44
2023/12/10 05:42:33;;;;;;;18.50;13.50;;;;;;;7.41;66.25;94438.03;5031606;28;20305;-45
2023/12/10 05:44:59;;;;;;;19.43;12.70;;;;;;;7.58;66.35;94477.38;5031610;28;20199;-46
2023/12/10 05:47:27;;;;;;;20.00;14.10;;;;;;;7.57;66.19;94468.94;5031417;28;20626;-44
2023/12/10 05:49:54;;;;;;;20.20;14.00;;;;;;;7.54;66.29;94472.53;5031885;28;20192;-46
2023/12/10 05:52:22;;;;;;;21.00;14.50;;;;;;;7.52;66.22;94456.59;5044947;28;20196;-46
2023/12/10 05:54:49;;;;;;;20.20;14.33;;;;;;;7.51;66.33;94456.72;5051477;28;20187;-45
2023/12/10 05:57:16;;;;;;;17.70;13.17;;;;;;;7.48;66.39;94462.88;5051424;28;20324;-45
2023/12/10 05:59:43;;;;;;;19.40;13.87;;;;;;;7.47;66.37;94473.16;5051047;28;20234;-44
2023/12/10 06:02:10;;;;;;;20.27;14.57;;;;;;;7.45;66.59;94467.41;5034067;28;20252;-44
2023/12/10 06:04:36;;;;;;;22.10;14.47;;;;;;;7.43;66.48;94469.28;5031602;28;20263;-46
2023/12/10 06:07:03;;;;;;;23.40;14.87;;;;;;;7.42;66.38;94470.97;5045748;28;20190;-45
2023/12/10 06:09:32;;;;;;;17.23;12.80;;;;;;;7.42;66.56;94478.63;5035354;28;20187;-46
2023/12/10 06:11:59;;;;;;;20.10;13.77;;;;;;;7.42;66.61;94465.91;5031388;28;20208;-45
2023/12/10 06:14:25;;;;;;;19.37;13.40;;;;;;;7.40;66.59;94470.31;5030791;28;20191;-45
2023/12/10 06:16:52;;;;;;;17.63;13.50;;;;;;;7.40;66.52;94464.44;5031498;28;20199;-44
2023/12/10 06:19:19;;;;;;;17.27;13.23;;;;;;;7.43;66.49;94467.53;5030644;28;20262;-45
2023/12/10 06:21:46;;;;;;;19.03;13.07;;;;;;;7.44;66.64;94475.97;5045644;28;20201;-45
2023/12/10 06:24:13;;;;;;;17.70;12.97;;;;;;;7.44;66.68;94471.69;5049093;28;20218;-44
2023/12/10 06:26:41;;;;;;;18.50;13.13;;;;;;;7.46;66.73;94479.19;5051004;28;20187;-45
2023/12/10 06:29:08;;;;;;;18.93;12.23;;;;;;;7.44;66.55;94474.22;5041491;28;20207;-45
2023/12/10 06:31:35;;;;;;;19.30;13.23;;;;;;;7.49;66.57;94473.84;5042360;28;20536;-45
2023/12/10 06:34:02;;;;;;;15.90;12.33;;;;;;;7.36;66.70;94456.22;5051016;28;20202;-46
2023/12/10 06:36:28;;;;;;;15.90;12.43;;;;;;;7.33;66.73;94453.94;5035987;28;20194;-44
2023/12/10 06:38:55;;;;;;;18.47;12.43;;;;;;;7.47;66.65;94480.78;5032062;28;20223;-44
2023/12/10 06:41:22;;;;;;;18.30;11.97;;;;;;;7.51;66.54;94485.53;5030883;28;20202;-44
2023/12/10 06:43:50;;;;;;;14.97;11.77;;;;;;;7.53;66.66;94498.13;5030469;28;20195;-45
2023/12/10 06:46:18;;;;;;;17.20;12.63;;;;;;;7.54;66.67;94487.00;5030200;28;20195;-45
2023/12/10 06:48:45;;;;;;;17.47;12.77;;;;;;;7.57;66.37;94496.13;5030251;28;20653;-45
2023/12/10 06:51:12;;;;;;;17.27;12.23;;;;;;;7.60;66.67;94495.88;5044153;28;20248;-45
2023/12/10 06:53:39;;;;;;;18.03;13.10;;;;;;;7.56;66.52;94489.44;5048734;28;20649;-46
2023/12/10 06:56:07;;;;;;;20.53;13.07;;;;;;;7.65;66.54;94504.75;5019955;28;20581;-44
2023/12/10 06:58:34;;;;;;;21.17;13.67;;;;;;;7.74;66.39;94505.75;5027218;28;20207;-44
2023/12/10 07:01:03;;;;;;;17.67;12.70;;;;;;;7.95;66.20;94503.19;5047510;28;20699;-46
2023/12/10 07:03:29;;;;;;;18.10;12.50;;;;;;;8.22;65.91;94497.53;5047668;28;20774;-45
2023/12/10 07:05:58;;;;;;;18.70;14.17;;;;;;;8.49;65.76;94513.09;5047465;28;20187;-46
2023/12/10 07:08:25;;;;;;;16.97;12.50;;;;;;;8.63;65.75;94493.25;5045860;28;20657;-44
2023/12/10 07:10:52;;;;;;;16.90;11.90;;;;;;;9.07;65.49;94511.59;5047659;28;20199;-46
2023/12/10 07:13:19;;;;;;;17.37;12.60;;;;;;;9.39;65.41;94519.00;5047396;28;20179;-45
2023/12/10 07:15:46;;;;;;;16.10;11.73;;;;;;;9.58;64.97;94498.56;5047808;28;20220;-46
2023/12/10 07:18:14;;;;;;;16.17;12.07;;;;;;;9.97;64.81;94519.75;5047304;28;20243;-46
2023/12/10 07:20:41;;;;;;;16.23;12.60;;;;;;;9.99;64.78;94453.97;5048095;28;20625;-48
2023/12/10 07:23:09;;;;;;;19.10;12.33;;;;;;;10.76;64.70;94510.84;5043576;28;20191;-47
2023/12/10 07:25:36;;;;;;;17.37;12.50;;;;;;;11.01;64.45;94507.59;5027895;28;20187;-45
2023/12/10 07:28:03;;;;;;;17.13;12.43;;;;;;;11.15;63.86;94508.06;5027384;28;20192;-46
2023/12/10 07:30:30;;;;;;;16.30;12.97;;;;;;;11.31;63.64;94513.28;5027575;28;20200;-47
2023/12/10 07:32:57;;;;;;;17.43;11.73;;;;;;;11.40;63.34;94511.59;5043481;28;20187;-45
2023/12/10 07:35:25;;;;;;;17.47;12.73;;;;;;;11.49;62.83;94501.31;5027846;28;20191;-48
2023/12/10 07:37:52;;;;;;;16.73;12.83;;;;;;;11.53;62.43;94505.19;5028959;28;20187;-49
2023/12/10 07:40:19;;;;;;;15.73;12.10;;;;;;;11.75;62.11;94514.16;5027762;28;20590;-48
2023/12/10 07:42:46;;;;;;;19.40;8.13;;;;;;;12.14;78.47;94505.31;5027132;28;20187;-47
2023/12/10 07:45:13;;;;;;;17.30;8.30;;;;;;;12.76;83.58;94487.94;5028201;28;20287;-45
2023/12/10 07:47:40;;;;;;;18.93;8.23;;;;;;;13.52;81.62;94492.91;5028071;28;20184;-46
2023/12/10 07:50:08;;;;;;;11.50;8.00;;;;;;;14.28;77.79;94512.25;5028185;28;20192;-45
2023/12/10 07:52:36;;;;;;;15.33;10.10;;;;;;;14.72;74.94;94508.44;5027274;28;20184;-46
2023/12/10 07:55:03;;;;;;;12.77;9.30;;;;;;;15.05;72.28;94512.47;5028076;28;20187;-47
2023/12/10 07:57:30;;;;;;;11.93;9.80;;;;;;;15.50;69.70;94508.31;5027379;28;20184;-47
2023/12/10 07:59:57;;;;;;;13.23;9.47;;;;;;;15.75;68.39;94506.38;5028244;28;20722;-47
2023/12/10 08:02:24;;;;;;;13.27;10.33;;;;;;;15.86;67.67;94528.38;5030675;28;20196;-46
2023/12/10 08:04:51;;;;;;;13.50;10.97;;;;;;;15.70;66.80;94531.88;5042820;28;20233;-47
2023/12/10 08:07:18;;;;;;;12.53;9.60;;;;;;;15.48;65.56;94535.22;5034521;28;20187;-46
2023/12/10 08:09:46;;;;;;;11.20;10.10;;;;;;;15.30;64.85;94535.50;5032780;28;20179;-48
2023/12/10 08:12:13;;;;;;;14.33;10.37;;;;;;;15.15;64.16;94532.84;5026505;28;20200;-45
2023/12/10 08:14:40;;;;;;;16.20;10.90;;;;;;;14.97;63.85;94532.28;5024877;28;20188;-47
2023/12/10 08:17:06;;;;;;;12.13;10.53;;;;;;;14.74;64.10;94535.63;5039736;28;20186;-46
2023/12/10 08:19:33;;;;;;;12.77;10.97;;;;;;;14.51;63.56;94534.75;5029041;28;20235;-47
2023/12/10 08:22:01;;;;;;;13.10;10.90;;;;;;;14.29;63.21;94529.31;5029730;28;20188;-48
2023/12/10 08:24:28;;;;;;;15.63;12.27;;;;;;;13.89;63.06;94501.88;5030466;28;20190;-46
2023/12/10 08:26:56;;;;;;;13.63;11.57;;;;;;;13.99;62.96;94537.72;5029817;28;20196;-46
2023/12/10 08:29:23;;;;;;;14.13;11.40;;;;;;;13.82;62.74;94539.47;5029795;28;20203;-49
2023/12/10 08:31:50;;;;;;;13.97;10.87;;;;;;;13.71;62.63;94535.44;5029290;28;20226;-46
2023/12/10 08:34:17;;;;;;;15.10;12.10;;;;;;;13.55;62.28;94523.41;5030073;28;20690;-46
2023/12/10 08:36:44;;;;;;;16.43;12.37;;;;;;;13.47;62.35;94517.44;5029409;28;20188;-46
2023/12/10 08:39:11;;;;;;;16.57;12.57;;;;;;;13.37;62.14;94515.03;5030163;28;20762;-45
2023/12/10 08:41:38;;;;;;;16.07;12.43;;;;;;;13.26;61.98;94499.94;5030136;28;20773;-46
2023/12/10 08:44:06;;;;;;;15.07;12.63;;;;;;;13.18;62.03;94505.84;5030125;28;20271;-46
2023/12/10 08:46:33;;;;;;;17.97;13.23;;;;;;;13.10;61.83;94505.81;5029787;28;20269;-47
2023/12/10 08:49:00;;;;;;;17.70;13.00;;;;;;;13.02;61.78;94510.94;5030342;28;20199;-46
2023/12/10 08:51:27;;;;;;;16.90;12.43;;;;;;;12.96;61.79;94498.75;5030767;28;20635;-46
2023/12/10 08:53:54;;;;;;;15.00;11.73;;;;;;;12.90;61.41;94502.72;5034070;28;20548;-47
2023/12/10 08:56:21;;;;;;;14.47;11.63;;;;;;;12.85;61.40;94499.81;5036769;28;20202;-46
2023/12/10 08:58:48;;;;;;;14.97;12.33;;;;;;;12.83;61.26;94500.97;5043712;28;20188;-45
2023/12/10 09:01:16;;;;;;;17.77;11.97;;;;;;;12.80;60.98;94502.06;5032220;28;20196;-45
2023/12/10 09:03:45;;;;;;;14.17;11.40;;;;;;;12.75;61.09;94502.53;5029075;28;20712;-46
2023/12/10 09:06:12;;;;;;;17.27;12.20;;;;;;;12.73;60.96;94494.16;5029472;28;20188;-46
2023/12/10 09:08:39;;;;;;;15.13;12.10;;;;;;;12.70;60.89;94488.56;5031848;28;20200;-46
2023/12/10 09:11:06;;;;;;;14.77;11.50;;;;;;;12.66;60.68;94484.72;5032775;28;20188;-49
2023/12/10 09:13:33;;;;;;;15.43;12.47;;;;;;;12.60;60.77;94472.47;5032734;28;20192;-46
2023/12/10 09:16:00;;;;;;;16.60;12.07;;;;;;;12.62;60.53;94480.84;5032708;28;20298;-45
2023/12/10 09:18:28;;;;;;;13.27;11.33;;;;;;;12.59;60.52;94486.28;5032632;28;20235;-46
2023/12/10 09:20:55;;;;;;;15.07;11.37;;;;;;;12.47;60.57;94465.22;5032478;28;20234;-45
2023/12/10 09:23:23;;;;;;;18.90;13.43;;;;;;;12.38;60.47;94454.13;5032560;28;20633;-47
2023/12/10 09:25:50;;;;;;;16.00;12.07;;;;;;;12.45;60.46;94480.78;5032749;28;20192;-46
2023/12/10 09:28:17;;;;;;;17.47;12.77;;;;;;;12.41;60.24;94473.53;5032330;28;20180;-46
2023/12/10 09:30:44;;;;;;;17.03;12.27;;;;;;;12.35;60.29;94463.88;5032584;28;20187;-45
2023/12/10 09:33:11;;;;;;;13.57;11.57;;;;;;;12.35;60.26;94469.00;5032607;28;20196;-46
2023/12/10 09:35:39;;;;;;;17.23;12.57;;;;;;;12.31;60.16;94476.22;5032208;28;20291;-45
2023/12/10 09:38:06;;;;;;;19.03;12.10;;;;;;;12.28;60.08;94471.41;5032327;28;20188;-45
2023/12/10 09:40:33;;;;;;;17.33;12.07;;;;;;;12.20;60.03;94456.78;5031892;28;20208;-45
2023/12/10 09:43:01;;;;;;;17.10;11.80;;;;;;;12.20;60.29;94450.84;5032615;28;20274;-46
2023/12/10 09:45:28;;;;;;;19.73;13.00;;;;;;;12.17;60.17;94451.94;5032948;28;20191;-45
2023/12/10 09:47:55;;;;;;;18.63;13.20;;;;;;;12.16;60.04;94444.41;5032390;28;20192;-47
2023/12/10 09:50:24;;;;;;;17.73;12.60;;;;;;;12.14;60.12;94444.59;5032622;28;20549;-55
2023/12/10 09:52:53;;;;;;;16.03;12.70;;;;;;;12.14;60.10;94454.03;5032035;28;20202;-46
2023/12/10 09:55:20;;;;;;;17.10;12.73;;;;;;;12.18;59.92;94453.59;5032266;28;20283;-45
2023/12/10 09:57:48;;;;;;;16.00;12.50;;;;;;;12.23;59.77;94443.66;5031983;28;20198;-45
2023/12/10 10:00:16;;;;;;;18.07;13.27;;;;;;;12.12;59.52;94425.97;5031885;28;20227;-45
2023/12/10 10:02:43;;;;;;;20.97;13.57;;;;;;;12.17;59.37;94436.56;5031841;28;20249;-46
2023/12/10 10:05:10;;;;;;;18.37;13.00;;;;;;;12.15;59.60;94432.56;5031819;28;20187;-44
2023/12/10 10:07:37;;;;;;;17.03;12.73;;;;;;;12.18;59.20;94433.06;5031926;28;20191;-44
2023/12/10 10:10:10;;;;;;;16.87;13.03;;;;;;;12.22;59.03;94436.94;5032026;28;20198;-44
2023/12/10 10:12:37;;;;;;;19.20;13.73;;;;;;;12.22;59.25;94424.13;5032014;28;20195;-45
2023/12/10 10:15:05;;;;;;;18.27;13.57;;;;;;;12.29;58.84;94443.03;5031634;28;20203;-45
2023/12/10 10:17:33;;;;;;;16.27;13.33;;;;;;;12.35;58.86;94433.94;5031913;28;20192;-46
2023/12/10 10:20:00;;;;;;;18.40;14.53;;;;;;;12.40;58.70;94436.84;5031112;28;20218;-46
2023/12/10 10:22:28;;;;;;;19.13;14.73;;;;;;;12.38;58.63;94435.38;5031467;28;20203;-45
2023/12/10 10:24:55;;;;;;;18.63;14.97;;;;;;;12.28;58.46;94415.00;5031647;28;20195;-46
2023/12/10 10:27:24;;;;;;;18.00;14.37;;;;;;;12.49;58.22;94438.47;5031492;28;20200;-45
2023/12/10 10:29:53;;;;;;;20.47;15.10;;;;;;;12.50;58.49;94421.31;5031773;28;20207;-46
2023/12/10 10:32:21;;;;;;;23.87;15.23;;;;;;;12.53;58.18;94419.25;5031201;28;20253;-46
2023/12/10 10:34:48;;;;;;;20.90;15.77;;;;;;;12.51;58.15;94413.44;5031131;28;20748;-46
2023/12/10 10:37:16;;;;;;;21.00;15.47;;;;;;;12.56;58.15;94418.13;5031526;28;20192;-45
2023/12/10 10:39:44;;;;;;;20.20;14.83;;;;;;;12.56;58.02;94413.00;5031196;28;20211;-45
2023/12/10 10:42:12;;;;;;;19.77;14.23;;;;;;;12.65;57.89;94418.94;5031374;28;20190;-45
2023/12/10 10:44:41;;;;;;;18.77;14.37;;;;;;;12.66;57.79;94418.00;5031879;28;20637;-46
2023/12/10 10:47:09;;;;;;;21.37;15.90;;;;;;;12.69;57.80;94418.47;5030944;28;20283;-46
2023/12/10 10:49:40;;;;;;;19.43;15.27;;;;;;;12.71;57.68;94408.88;5031226;28;20195;-45
2023/12/10 10:52:12;;;;;;;19.27;14.00;;;;;;;12.73;57.52;94404.38;5031554;28;20190;-46
2023/12/10 10:54:40;;;;;;;19.40;14.70;;;;;;;12.75;57.74;94401.66;5031299;28;20301;-46
2023/12/10 10:57:07;;;;;;;18.97;14.60;;;;;;;12.75;57.65;94401.66;5032030;28;20188;-45
2023/12/10 10:59:35;;;;;;;22.50;14.80;;;;;;;12.76;57.46;94395.56;5032413;28;20214;-46
2023/12/10 11:02:07;;;;;;;18.30;13.60;;;;;;;12.79;57.43;94392.69;5032276;28;20215;-45
2023/12/10 11:04:37;;;;;;;19.73;14.93;;;;;;;12.71;57.45;94382.41;5031487;28;20191;-46
2023/12/10 11:07:05;;;;;;;20.23;14.23;;;;;;;12.80;57.24;94392.53;5031616;28;20282;-47
2023/12/10 11:09:33;;;;;;;19.07;14.13;;;;;;;12.77;57.37;94384.31;5030746;28;20651;-49
2023/12/10 11:12:00;;;;;;;16.47;13.43;;;;;;;12.79;57.35;94383.22;5030372;28;20661;-45
2023/12/10 11:14:32;;;;;;;19.23;14.37;;;;;;;12.59;57.05;94347.75;5030461;28;20191;-47
2023/12/10 11:17:01;;;;;;;17.57;13.27;;;;;;;12.80;57.17;94379.69;5030063;28;20660;-46
2023/12/10 11:19:31;;;;;;;18.50;13.20;;;;;;;12.80;57.09;94372.00;5030175;28;20766;-45
2023/12/10 11:21:58;;;;;;;19.50;13.83;;;;;;;12.80;57.19;94374.56;5030012;28;20295;-45